Time;durP1;ratioP1;P1;durP2;ratioP2;P2;SDS_P1;SDS_P2;PMS_P1;PMS_P2;Temp;Humidity;BMP_temperature;BMP_pressure;BME280_temperature;BME280_humidity;BME280_pressure;Samples;Min_cycle;Max_cycle;Signal;HPM_P1;HPM_P2
2023/03/11 00:00:25;;;;;;;5.13;4.43;;;;;;;10.25;91.28;98109.89;1483827;88;21538;-78
2023/03/11 00:02:55;;;;;;;5.37;4.37;;;;;;;10.26;90.95;98102.27;1497180;86;21436;-78
2023/03/11 00:05:28;;;;;;;7.90;5.60;;;;;;;10.25;91.30;98102.48;1480656;88;21575;-79
2023/03/11 00:07:55;;;;;;;6.97;5.00;;;;;;;10.25;90.96;98104.61;1474464;88;21361;-77
2023/03/11 00:10:25;;;;;;;7.57;4.90;;;;;;;10.26;91.05;98104.91;1475681;88;21383;-78
2023/03/11 00:12:52;;;;;;;6.22;4.17;;;;;;;10.26;91.00;98100.94;1484203;88;22308;-78
2023/03/11 00:15:19;;;;;;;5.83;4.63;;;;;;;10.27;91.04;98097.33;1476711;88;21412;-79
2023/03/11 00:17:47;;;;;;;8.53;5.67;;;;;;;10.29;91.58;98097.92;1482835;88;21376;-79
2023/03/11 00:20:25;;;;;;;7.70;5.37;;;;;;;10.31;90.64;98091.92;1475487;88;21347;-78
2023/03/11 00:22:52;;;;;;;7.17;5.40;;;;;;;10.34;90.06;98099.45;1474548;86;21457;-79
2023/03/11 00:25:20;;;;;;;8.13;5.07;;;;;;;10.31;90.50;98091.92;1472430;88;22404;-79
2023/03/11 00:27:47;;;;;;;7.07;5.43;;;;;;;10.31;90.87;98093.77;1473005;88;21368;-78
2023/03/11 00:30:15;;;;;;;8.23;4.27;;;;;;;10.28;91.10;98085.73;1467609;88;21464;-78
2023/03/11 00:32:41;;;;;;;6.53;5.33;;;;;;;10.29;91.64;98083.89;1475988;88;21354;-78
2023/03/11 00:35:11;;;;;;;7.90;5.13;;;;;;;10.31;91.48;98081.87;1481611;88;21501;-78
2023/03/11 00:37:37;;;;;;;6.00;4.90;;;;;;;10.28;91.90;98081.77;1479745;86;21664;-77
2023/03/11 00:40:09;;;;;;;6.37;4.73;;;;;;;10.27;91.81;98074.02;1480045;88;21532;-78
2023/03/11 00:42:36;;;;;;;5.87;4.83;;;;;;;10.24;92.85;98071.27;1476374;88;21354;-77
2023/03/11 00:45:02;;;;;;;9.97;5.10;;;;;;;10.20;92.54;98067.39;1476377;88;22486;-78
2023/03/11 00:47:28;;;;;;;5.73;4.40;;;;;;;10.18;93.58;98065.45;1471464;88;21383;-77
2023/03/11 00:49:54;;;;;;;5.80;4.60;;;;;;;10.17;93.68;98058.55;1472524;88;21377;-78
2023/03/11 00:52:20;;;;;;;8.43;4.83;;;;;;;10.16;93.96;98054.28;1472396;88;21433;-78
2023/03/11 00:54:46;;;;;;;11.53;6.63;;;;;;;10.13;95.20;98056.01;1473885;88;21391;-77
2023/03/11 00:57:13;;;;;;;6.57;5.03;;;;;;;10.11;94.46;98050.10;1471985;88;21376;-77
2023/03/11 00:59:39;;;;;;;7.80;5.20;;;;;;;10.10;94.56;98047.16;1485210;88;21419;-77
2023/03/11 01:02:05;;;;;;;8.03;5.33;;;;;;;10.11;94.06;98047.46;1479301;88;21435;-77
2023/03/11 01:04:32;;;;;;;6.60;4.97;;;;;;;10.09;95.15;98041.55;1479408;88;21390;-77
2023/03/11 01:06:58;;;;;;;8.93;6.93;;;;;;;10.02;95.98;98040.75;1471882;88;21391;-78
2023/03/11 01:09:24;;;;;;;9.63;6.10;;;;;;;9.97;95.83;98035.25;1474331;88;21353;-77
2023/03/11 01:11:50;;;;;;;8.67;5.40;;;;;;;9.95;95.35;98032.80;1468339;88;21390;-78
2023/03/11 01:14:17;;;;;;;10.23;6.27;;;;;;;9.92;94.90;98033.20;1476203;88;21317;-77
2023/03/11 01:16:45;;;;;;;6.03;5.27;;;;;;;9.88;95.72;98034.63;1470261;88;22499;-77
2023/03/11 01:19:12;;;;;;;8.63;5.70;;;;;;;9.83;96.90;98028.62;1473291;88;21354;-77
2023/03/11 01:21:39;;;;;;;7.97;5.67;;;;;;;9.80;98.01;98021.10;1471746;88;22293;-76
2023/03/11 01:24:05;;;;;;;7.17;5.40;;;;;;;9.76;98.96;98019.89;1477928;88;21332;-77
2023/03/11 01:26:31;;;;;;;7.83;6.20;;;;;;;9.74;100.00;98012.66;1469385;88;21414;-78
2023/03/11 01:28:57;;;;;;;8.50;6.27;;;;;;;9.70;100.00;98015.41;1474659;88;22196;-78
2023/03/11 01:31:23;;;;;;;8.13;6.63;;;;;;;9.66;100.00;98012.84;1478291;88;21405;-78
2023/03/11 01:33:50;;;;;;;7.70;6.90;;;;;;;9.59;100.00;98017.31;1478434;88;21442;-79
2023/03/11 01:36:16;;;;;;;6.53;5.83;;;;;;;9.56;100.00;98015.08;1473492;88;22454;-78
2023/03/11 01:38:42;;;;;;;6.90;6.20;;;;;;;9.56;100.00;98015.88;1483219;88;21963;-79
2023/03/11 01:41:10;;;;;;;8.10;6.50;;;;;;;9.49;100.00;98007.95;1475050;88;21479;-78
2023/03/11 01:43:47;;;;;;;7.87;6.63;;;;;;;9.52;100.00;98006.72;1476305;88;21331;-77
2023/03/11 01:46:45;;;;;;;10.43;7.63;;;;;;;9.51;100.00;98005.10;1474828;88;21450;-77
2023/03/11 01:49:12;;;;;;;10.53;8.37;;;;;;;9.49;100.00;98004.00;1479860;88;21513;-77
2023/03/11 01:51:41;;;;;;;10.17;8.37;;;;;;;9.49;100.00;98004.48;1473382;88;21501;-77
2023/03/11 01:54:31;;;;;;;10.43;8.38;;;;;;;9.48;100.00;97996.27;1477549;88;22322;-77
2023/03/11 01:57:00;;;;;;;11.80;9.40;;;;;;;9.46;100.00;97999.09;1462167;88;21486;-77
2023/03/11 01:59:30;;;;;;;11.93;9.03;;;;;;;9.45;100.00;98001.43;1471131;88;21384;-78
2023/03/11 02:02:14;;;;;;;11.30;8.55;;;;;;;9.44;100.00;97999.01;1464781;88;22382;-76
2023/03/11 02:04:41;;;;;;;10.17;9.17;;;;;;;9.44;100.00;98001.14;1477613;88;21710;-77
2023/03/11 02:07:09;;;;;;;15.23;10.73;;;;;;;9.44;100.00;97993.73;1491700;86;21412;-76
2023/03/11 02:09:36;;;;;;;10.90;9.70;;;;;;;9.42;100.00;97989.95;1483834;88;22169;-77
2023/03/11 02:12:05;;;;;;;14.20;10.33;;;;;;;9.43;100.00;97995.53;1474963;88;21413;-77
2023/03/11 02:14:32;;;;;;;10.57;9.30;;;;;;;9.43;100.00;97992.89;1470165;88;21309;-77
2023/03/11 02:16:59;;;;;;;10.20;9.10;;;;;;;9.42;100.00;97999.19;1471217;88;21405;-78
2023/03/11 02:19:50;;;;;;;15.73;12.40;;;;;;;9.39;100.00;97993.50;1465527;88;21390;-76
2023/03/11 02:22:16;;;;;;;16.20;12.57;;;;;;;9.37;100.00;97991.05;1476935;88;21330;-77
2023/03/11 02:25:09;;;;;;;14.17;11.57;;;;;;;9.37;100.00;97992.37;1470654;88;21501;-77
2023/03/11 02:27:40;;;;;;;12.07;10.87;;;;;;;9.35;100.00;97989.14;1475027;88;21605;-77
2023/03/11 02:30:09;;;;;;;12.00;10.43;;;;;;;9.34;100.00;97982.21;1471333;88;22391;-75
2023/03/11 02:32:36;;;;;;;13.03;9.80;;;;;;;9.32;100.00;97978.98;1480294;88;21368;-77
2023/03/11 02:35:04;;;;;;;16.47;11.40;;;;;;;9.35;100.00;97983.86;1460909;88;21404;-78
2023/03/11 02:37:30;;;;;;;11.10;9.73;;;;;;;9.33;100.00;97985.06;1475595;88;21619;-79
2023/03/11 02:40:29;;;;;;;14.90;11.97;;;;;;;9.34;100.00;97986.68;1475266;88;21449;-78
2023/03/11 02:43:02;;;;;;;;;;;;;;;9.34;100.00;97985.36;1487957;88;22061;-79
2023/03/11 02:45:30;;;;;;;15.13;11.88;;;;;;;9.33;100.00;97989.83;1488724;88;20387;-79
2023/03/11 02:47:58;;;;;;;11.37;10.17;;;;;;;9.31;100.00;97982.61;1480153;88;21428;-78
2023/03/11 02:50:26;;;;;;;17.60;10.37;;;;;;;9.31;100.00;97974.69;1469619;88;21434;-79
2023/03/11 02:52:52;;;;;;;13.17;10.13;;;;;;;9.31;100.00;97978.66;1475981;88;21391;-79
2023/03/11 02:55:19;;;;;;;12.67;10.67;;;;;;;9.29;100.00;97978.54;1472100;88;21479;-79
2023/03/11 02:57:47;;;;;;;18.37;11.73;;;;;;;9.28;100.00;97980.37;1472275;88;22485;-79
2023/03/11 03:00:16;;;;;;;13.53;11.03;;;;;;;9.28;100.00;97976.41;1479959;88;21353;-79
2023/03/11 03:02:44;;;;;;;14.70;10.80;;;;;;;9.25;100.00;97978.94;1483623;88;21516;-78
2023/03/11 03:05:12;;;;;;;12.60;10.50;;;;;;;9.27;100.00;97982.71;1481571;88;21471;-79
2023/03/11 03:07:39;;;;;;;13.27;9.80;;;;;;;9.27;100.00;97986.67;1473737;88;21442;-78
2023/03/11 03:10:06;;;;;;;13.33;10.10;;;;;;;9.26;100.00;97973.15;1478772;88;21525;-80
2023/03/11 03:12:33;;;;;;;11.57;9.77;;;;;;;9.23;100.00;97968.27;1470668;88;21567;-81
2023/03/11 03:14:59;;;;;;;11.60;9.57;;;;;;;9.24;100.00;97963.31;1475919;88;22290;-80
2023/03/11 03:17:25;;;;;;;12.10;10.77;;;;;;;9.24;100.00;97965.95;1475659;88;21421;-79
2023/03/11 03:19:52;;;;;;;12.47;10.23;;;;;;;9.24;100.00;97967.28;1472407;88;21509;-80
2023/03/11 03:22:18;;;;;;;13.17;9.57;;;;;;;9.23;100.00;97966.95;1476417;88;22373;-80
2023/03/11 03:24:44;;;;;;;14.10;9.10;;;;;;;9.24;100.00;97959.36;1478930;88;21435;-79
2023/03/11 03:27:10;;;;;;;13.80;9.17;;;;;;;9.25;100.00;97955.70;1477966;88;21383;-80
2023/03/11 03:29:36;;;;;;;15.30;10.30;;;;;;;9.25;100.00;97964.42;1470965;88;21391;-80
2023/03/11 03:32:03;;;;;;;15.30;10.30;;;;;;;9.24;100.00;97956.72;1482673;88;21449;-81
2023/03/11 03:34:29;;;;;;;12.93;10.30;;;;;;;9.23;100.00;97960.35;1476804;88;21331;-79
2023/03/11 03:36:55;;;;;;;12.87;10.23;;;;;;;9.19;100.00;97961.77;1478857;88;21369;-78
2023/03/11 03:39:21;;;;;;;13.00;10.00;;;;;;;9.17;100.00;97967.23;1476395;88;22425;-79
2023/03/11 03:41:47;;;;;;;15.40;11.10;;;;;;;9.15;100.00;97963.16;1479556;88;21383;-79
2023/03/11 03:44:14;;;;;;;11.77;10.30;;;;;;;9.16;100.00;97960.85;1486353;88;21332;-79
2023/03/11 03:46:40;;;;;;;13.40;11.70;;;;;;;9.19;100.00;97965.73;1480603;88;22336;-79
2023/03/11 03:49:06;;;;;;;17.23;11.67;;;;;;;9.20;100.00;97957.59;1479713;88;21358;-80
2023/03/11 03:51:33;;;;;;;16.20;13.13;;;;;;;9.19;100.00;97954.66;1473431;88;21389;-79
2023/03/11 03:54:00;;;;;;;15.30;13.00;;;;;;;9.21;100.00;97965.03;1470098;88;21465;-78
2023/03/11 03:56:26;;;;;;;16.63;14.33;;;;;;;9.24;100.00;97967.28;1479363;88;21427;-78
2023/03/11 03:58:53;;;;;;;15.13;13.53;;;;;;;9.20;100.00;97964.20;1473274;88;21476;-78
2023/03/11 04:01:20;;;;;;;14.93;12.67;;;;;;;9.23;100.00;97968.27;1478129;88;22716;-78
2023/03/11 04:03:47;;;;;;;19.07;15.57;;;;;;;9.22;100.00;97960.86;1481104;88;21397;-79
2023/03/11 04:06:23;;;;;;;16.40;14.20;;;;;;;9.21;100.00;97959.76;1478918;88;22256;-78
2023/03/11 04:08:51;;;;;;;14.90;13.03;;;;;;;9.19;100.00;97953.86;1483742;88;21502;-78
2023/03/11 04:11:18;;;;;;;18.43;14.57;;;;;;;9.19;100.00;97948.58;1478833;88;22270;-77
2023/03/11 04:13:45;;;;;;;17.87;14.13;;;;;;;9.16;100.00;97948.98;1472252;88;21449;-76
2023/03/11 04:16:19;;;;;;;18.13;15.07;;;;;;;9.13;100.00;97941.46;1472525;88;22544;-78
2023/03/11 04:18:45;;;;;;;14.03;11.13;;;;;;;9.11;100.00;97944.80;1476384;88;21450;-79
2023/03/11 04:21:11;;;;;;;18.37;14.40;;;;;;;9.09;100.00;97948.97;1476184;88;21531;-78
2023/03/11 04:23:38;;;;;;;15.63;13.30;;;;;;;9.06;100.00;97932.70;1472022;88;22256;-79
2023/03/11 04:26:04;;;;;;;14.00;12.23;;;;;;;9.02;100.00;97927.02;1470498;88;21391;-77
2023/03/11 04:28:31;;;;;;;13.77;11.43;;;;;;;9.02;100.00;97913.30;1479673;88;21435;-77
2023/03/11 04:30:58;;;;;;;14.03;9.60;;;;;;;9.03;100.00;97932.11;1475962;88;21530;-78
2023/03/11 04:33:24;;;;;;;14.23;11.03;;;;;;;9.03;100.00;97929.47;1475428;88;21376;-77
2023/03/11 04:35:50;;;;;;;16.73;11.70;;;;;;;9.02;100.00;97936.25;1474628;88;21490;-78
2023/03/11 04:38:16;;;;;;;16.07;12.77;;;;;;;9.00;100.00;97935.11;1470867;88;21339;-78
2023/03/11 04:40:42;;;;;;;16.50;13.60;;;;;;;8.97;100.00;97942.11;1470556;88;21272;-79
2023/03/11 04:43:08;;;;;;;18.13;12.97;;;;;;;8.98;100.00;97953.49;1480775;88;21317;-79
2023/03/11 04:45:41;;;;;;;15.23;11.87;;;;;;;8.95;100.00;97969.72;1478534;88;21478;-79
2023/03/11 04:48:08;;;;;;;17.67;12.17;;;;;;;8.92;100.00;97966.13;1480707;88;21287;-78
2023/03/11 04:50:34;;;;;;;13.27;9.30;;;;;;;8.91;100.00;97971.11;1471984;88;21999;-77
2023/03/11 04:53:00;;;;;;;13.30;10.53;;;;;;;8.89;100.00;97967.36;1500853;86;21516;-78
2023/03/11 04:55:26;;;;;;;10.33;8.53;;;;;;;8.87;100.00;97973.33;1478235;88;21390;-78
2023/03/11 04:57:53;;;;;;;15.33;10.77;;;;;;;8.81;100.00;97976.24;1482514;88;21832;-78
2023/03/11 05:00:23;;;;;;;11.27;8.33;;;;;;;8.80;100.00;97965.87;1472138;88;21442;-78
2023/03/11 05:02:47;;;;;;;11.70;8.47;;;;;;;8.77;100.00;97967.59;1475477;86;21530;-78
2023/03/11 05:05:14;;;;;;;15.57;9.30;;;;;;;8.74;100.00;97971.94;1505614;86;21472;-78
2023/03/11 05:07:40;;;;;;;9.57;8.00;;;;;;;8.73;100.00;97968.49;1467679;88;22166;-78
2023/03/11 05:10:08;;;;;;;11.83;8.87;;;;;;;8.72;100.00;97969.52;1477058;88;21398;-78
2023/03/11 05:12:35;;;;;;;14.23;8.57;;;;;;;8.70;100.00;97966.76;1476058;88;21354;-79
2023/03/11 05:15:01;;;;;;;10.83;8.60;;;;;;;8.66;100.00;97976.89;1473907;88;21600;-79
2023/03/11 05:17:28;;;;;;;20.63;13.00;;;;;;;8.62;100.00;97974.31;1474924;88;21512;-80
2023/03/11 05:19:54;;;;;;;23.47;13.47;;;;;;;8.58;100.00;97976.53;1481343;88;21353;-80
2023/03/11 05:22:21;;;;;;;14.03;9.40;;;;;;;8.56;100.00;97970.63;1470050;88;21547;-79
2023/03/11 05:24:47;;;;;;;9.77;7.50;;;;;;;8.55;100.00;97971.66;1474326;88;21398;-79
2023/03/11 05:27:18;;;;;;;10.47;8.00;;;;;;;8.55;100.00;97975.61;1479823;88;21420;-80
2023/03/11 05:29:44;;;;;;;;;;;;;;;8.55;100.00;97977.44;1485959;88;21405;-81
2023/03/11 05:32:12;;;;;;;11.17;6.53;;;;;;;8.53;100.00;97992.12;1478787;88;20379;-80
2023/03/11 05:34:38;;;;;;;14.67;7.20;;;;;;;8.51;99.84;97999.39;1478274;88;21405;-81
2023/03/11 05:37:04;;;;;;;9.70;5.00;;;;;;;8.53;99.43;98001.34;1478240;88;21347;-79
2023/03/11 05:39:31;;;;;;;4.40;2.90;;;;;;;8.57;98.36;98006.55;1481054;88;21698;-80
2023/03/11 05:41:57;;;;;;;4.27;2.87;;;;;;;8.61;96.79;98006.17;1484827;88;21340;-80
2023/03/11 05:44:23;;;;;;;5.20;3.50;;;;;;;8.58;92.64;98005.54;1477450;88;21383;-79
2023/03/11 05:46:49;;;;;;;4.83;2.70;;;;;;;8.58;90.70;98008.17;1465022;88;22424;-81
2023/03/11 05:49:15;;;;;;;4.50;2.70;;;;;;;8.55;89.90;98012.52;1484078;88;21361;-80
2023/03/11 05:51:41;;;;;;;3.43;2.87;;;;;;;8.53;89.29;98029.02;1475317;88;21471;-81
2023/03/11 05:54:13;;;;;;;4.93;2.47;;;;;;;8.50;89.39;98025.97;1474839;88;22441;-80
2023/03/11 05:56:36;;;;;;;3.83;2.33;;;;;;;8.49;89.65;98025.16;1483279;86;22205;-81
2023/03/11 05:59:02;;;;;;;8.40;3.00;;;;;;;8.45;89.61;98027.84;1459901;88;21324;-80
2023/03/11 06:01:29;;;;;;;8.30;3.97;;;;;;;8.48;88.58;98020.88;1480263;88;21512;-80
2023/03/11 06:03:55;;;;;;;8.17;2.40;;;;;;;8.43;88.85;98014.55;1483512;88;22248;-79
2023/03/11 06:06:22;;;;;;;3.03;2.27;;;;;;;8.41;89.06;98005.53;1462413;88;21442;-80
2023/03/11 06:08:49;;;;;;;4.87;2.57;;;;;;;8.41;88.96;98002.89;1479108;88;21324;-80
2023/03/11 06:11:17;;;;;;;10.73;3.37;;;;;;;8.34;86.86;97994.08;1483766;88;21627;-80
2023/03/11 06:13:43;;;;;;;5.40;2.80;;;;;;;8.35;87.79;98003.64;1479376;88;21323;-80
2023/03/11 06:16:09;;;;;;;2.97;1.93;;;;;;;8.34;87.84;97992.28;1484458;88;22396;-80
2023/03/11 06:18:35;;;;;;;3.30;1.60;;;;;;;8.36;87.26;97997.34;1474117;88;21374;-80
2023/03/11 06:21:03;;;;;;;3.90;2.00;;;;;;;8.46;86.79;97993.91;1478912;88;22219;-80
2023/03/11 06:23:30;;;;;;;2.07;1.23;;;;;;;8.52;86.38;97998.41;1475526;88;21376;-80
2023/03/11 06:26:03;;;;;;;6.00;1.73;;;;;;;8.65;85.29;97999.48;1475700;88;21346;-80
2023/03/11 06:28:31;;;;;;;6.77;3.70;;;;;;;8.77;83.96;98005.83;1482103;88;21354;-80
2023/03/11 06:31:09;;;;;;;2.63;1.40;;;;;;;8.93;83.01;98002.88;1482225;88;21332;-80
2023/03/11 06:33:36;;;;;;;2.83;1.63;;;;;;;9.08;82.85;97997.97;1475499;88;21641;-80
2023/03/11 06:36:05;;;;;;;4.37;1.83;;;;;;;9.17;81.38;98000.22;1480353;88;21405;-80
2023/03/11 06:38:32;;;;;;;4.57;1.90;;;;;;;9.23;79.77;97997.30;1477084;88;21392;-79
2023/03/11 06:41:00;;;;;;;2.27;1.07;;;;;;;9.23;79.00;98007.86;1479148;88;21302;-81
2023/03/11 06:43:27;;;;;;;3.60;1.83;;;;;;;9.20;76.17;98001.14;1476730;88;21405;-80
2023/03/11 06:45:53;;;;;;;5.43;2.50;;;;;;;9.21;75.34;98000.66;1479013;88;21539;-80
2023/03/11 06:48:20;;;;;;;4.93;1.77;;;;;;;9.22;74.82;98003.60;1473123;88;21398;-78
2023/03/11 06:50:55;;;;;;;3.17;2.10;;;;;;;9.23;74.13;97999.94;1480923;88;22332;-80
2023/03/11 06:53:22;;;;;;;7.93;4.60;;;;;;;9.24;74.15;98001.59;1484596;88;21428;-81
2023/03/11 06:56:11;;;;;;;5.77;3.93;;;;;;;9.23;73.80;98000.75;1480348;88;21331;-80
2023/03/11 06:58:40;;;;;;;3.03;2.10;;;;;;;9.25;73.32;98009.80;1472482;88;21428;-80
2023/03/11 07:01:13;;;;;;;1.17;0.90;;;;;;;9.30;72.64;98008.70;1481488;88;21568;-81
2023/03/11 07:03:40;;;;;;;2.47;0.90;;;;;;;9.26;71.31;98004.34;1478562;88;21353;-81
2023/03/11 07:06:17;;;;;;;5.40;2.07;;;;;;;9.30;70.02;98017.95;1473329;88;22190;-80
2023/03/11 07:08:47;;;;;;;2.60;1.40;;;;;;;9.38;69.48;98013.81;1473031;88;21405;-79
2023/03/11 07:11:22;;;;;;;2.90;1.87;;;;;;;9.43;68.58;98029.84;1478136;88;21449;-80
2023/03/11 07:13:48;;;;;;;6.60;2.23;;;;;;;9.35;65.05;98019.49;1472056;88;22301;-81
2023/03/11 07:16:19;;;;;;;3.87;2.53;;;;;;;9.38;65.67;98017.77;1475670;88;21501;-79
2023/03/11 07:18:47;;;;;;;1.15;0.75;;;;;;;9.55;64.31;98004.19;1474175;86;21383;-79
2023/03/11 07:21:18;;;;;;;1.33;1.03;;;;;;;9.64;64.40;97993.77;1473655;88;22426;-80
2023/03/11 07:23:45;;;;;;;5.75;2.75;;;;;;;9.63;59.65;98009.29;1479862;88;22315;-78
2023/03/11 07:26:14;;;;;;;3.50;1.00;;;;;;;9.58;59.57;98008.59;1475414;88;21512;-80
2023/03/11 07:28:41;;;;;;;3.40;0.83;;;;;;;9.46;57.66;98021.53;1477267;88;21398;-80
2023/03/11 07:31:11;;;;;;;2.07;1.40;;;;;;;9.35;58.49;98023.45;1482722;88;21361;-79
2023/03/11 07:33:37;;;;;;;6.43;1.20;;;;;;;9.30;59.11;98000.79;1474142;88;21568;-79
2023/03/11 07:36:13;;;;;;;2.60;1.90;;;;;;;9.28;57.76;97998.84;1475043;88;21384;-79
2023/03/11 07:38:40;;;;;;;1.70;0.73;;;;;;;9.20;58.37;98020.13;1482896;88;21649;-83
2023/03/11 07:41:07;;;;;;;1.83;0.80;;;;;;;9.15;59.60;98024.70;1483973;88;21295;-83
2023/03/11 07:43:33;;;;;;;1.00;0.80;;;;;;;8.97;56.32;98037.08;1483894;88;21368;-83
2023/03/11 07:46:21;;;;;;;1.57;0.70;;;;;;;8.85;57.03;98029.92;1482610;88;21450;-83
2023/03/11 07:48:49;;;;;;;0.77;0.63;;;;;;;8.72;57.14;98018.81;1469503;88;21428;-84
2023/03/11 07:51:27;;;;;;;;;;;;;;;8.56;57.58;98028.64;1476953;88;22426;-84
2023/03/11 07:53:56;;;;;;;3.63;0.90;;;;;;;8.45;57.57;98038.39;1470498;88;20335;-84
2023/03/11 08:03:29;;;;;;;0.87;0.73;;;;;;;8.20;58.66;98026.14;1472847;88;22817;-84
2023/03/11 08:05:56;;;;;;;6.43;2.50;;;;;;;8.04;59.21;98043.02;1477191;88;21605;-85
2023/03/11 08:08:22;;;;;;;1.30;0.90;;;;;;;8.00;60.09;98048.36;1456979;88;21530;-84
2023/03/11 08:10:48;;;;;;;2.30;0.80;;;;;;;7.97;60.05;98041.31;1473011;88;21494;-79
2023/03/11 08:13:14;;;;;;;2.77;1.13;;;;;;;7.98;60.44;98051.67;1488452;88;21412;-80
2023/03/11 08:15:41;;;;;;;3.53;2.40;;;;;;;7.97;59.85;98038.20;1477072;88;22299;-80
2023/03/11 08:18:07;;;;;;;2.30;1.37;;;;;;;8.03;60.48;98046.66;1477678;88;22525;-85
2023/03/11 08:20:36;;;;;;;3.70;0.90;;;;;;;7.96;59.21;98058.95;1481813;88;21421;-84
2023/03/11 08:23:02;;;;;;;4.67;0.97;;;;;;;7.93;58.68;98059.33;1496638;86;21457;-83
2023/03/11 08:25:28;;;;;;;3.63;1.10;;;;;;;7.90;59.43;98059.20;1475084;88;21420;-83
2023/03/11 08:27:55;;;;;;;4.80;1.17;;;;;;;7.90;59.56;98072.87;1473972;88;21406;-84
2023/03/11 08:30:22;;;;;;;3.90;1.70;;;;;;;7.95;59.94;98073.13;1477406;88;21368;-85
2023/03/11 08:32:49;;;;;;;2.33;1.00;;;;;;;7.93;59.12;98084.34;1480471;88;21553;-85
2023/03/11 08:35:16;;;;;;;3.63;1.27;;;;;;;7.85;58.94;98075.24;1475932;88;21383;-85
2023/03/11 08:37:43;;;;;;;2.90;1.10;;;;;;;7.83;59.65;98090.44;1479596;88;21553;-84
2023/03/11 08:40:11;;;;;;;1.40;0.90;;;;;;;7.81;59.75;98088.48;1477194;88;22285;-85
2023/03/11 08:42:37;;;;;;;0.80;0.80;;;;;;;7.75;59.35;98107.66;1470549;88;21391;-83
2023/03/11 08:45:05;;;;;;;3.80;1.10;;;;;;;7.69;59.85;98091.60;1475352;88;21398;-85
2023/03/11 08:47:35;;;;;;;5.33;1.17;;;;;;;7.61;57.99;98087.76;1482084;88;21572;-84
2023/03/11 08:50:04;;;;;;;1.98;1.05;;;;;;;7.52;57.00;98120.47;1474258;88;22278;-85
2023/03/11 08:52:30;;;;;;;2.63;1.03;;;;;;;7.55;57.96;98114.83;1472733;88;21568;-85
2023/03/11 08:54:56;;;;;;;1.10;1.00;;;;;;;7.52;56.82;98107.30;1474988;88;22263;-85
2023/03/11 08:57:22;;;;;;;1.60;0.87;;;;;;;7.50;56.95;98113.75;1472489;88;21295;-84
2023/03/11 08:59:50;;;;;;;2.90;1.70;;;;;;;7.47;56.52;98120.19;1478233;88;21538;-84
2023/03/11 09:02:16;;;;;;;2.07;1.43;;;;;;;7.42;56.32;98132.61;1476173;88;21505;-83
2023/03/11 09:04:42;;;;;;;2.00;1.10;;;;;;;7.41;55.27;98134.09;1484389;88;21458;-83
2023/03/11 09:07:10;;;;;;;1.70;1.00;;;;;;;7.27;53.67;98111.23;1477416;88;21712;-84
2023/03/11 09:09:37;;;;;;;1.10;0.90;;;;;;;7.23;54.27;98156.33;1477922;88;22329;-83
2023/03/11 09:12:03;;;;;;;3.33;1.00;;;;;;;7.15;54.69;98132.73;1479152;88;21493;-83
2023/03/11 09:14:29;;;;;;;2.10;0.90;;;;;;;7.17;55.49;98134.70;1472298;88;21643;-85
2023/03/11 09:16:56;;;;;;;2.60;1.10;;;;;;;7.18;53.71;98152.61;1476021;88;21398;-83
2023/03/11 09:19:23;;;;;;;1.20;1.03;;;;;;;7.15;53.96;98144.58;1474352;88;21524;-83
2023/03/11 09:21:49;;;;;;;1.57;1.00;;;;;;;7.16;54.00;98148.86;1474134;88;21435;-84
2023/03/11 09:24:15;;;;;;;1.57;1.30;;;;;;;7.16;53.64;98141.44;1479407;88;22417;-85
2023/03/11 09:26:41;;;;;;;2.13;1.50;;;;;;;7.16;53.65;98151.49;1478496;88;22211;-83
2023/03/11 09:29:07;;;;;;;2.40;1.70;;;;;;;7.19;55.12;98156.86;1474688;88;21390;-84
2023/03/11 09:31:33;;;;;;;2.23;1.53;;;;;;;7.16;55.92;98153.28;1472478;88;21600;-84
2023/03/11 09:34:00;;;;;;;1.70;1.20;;;;;;;7.15;55.82;98174.83;1480791;88;21405;-86
2023/03/11 09:36:26;;;;;;;4.47;3.20;;;;;;;7.10;56.39;98175.86;1477372;88;21391;-81
2023/03/11 09:38:52;;;;;;;1.73;1.27;;;;;;;7.09;56.21;98170.30;1468217;88;22955;-80
2023/03/11 09:41:39;;;;;;;4.57;2.17;;;;;;;6.98;55.32;98172.86;1474467;88;21376;-79
2023/03/11 09:44:32;;;;;;;2.87;1.67;;;;;;;6.92;56.13;98172.77;1475919;88;21546;-81
2023/03/11 09:47:22;;;;;;;2.63;1.93;;;;;;;6.87;55.25;98180.37;1474222;88;22404;-82
2023/03/11 09:50:11;;;;;;;3.03;1.40;;;;;;;6.80;55.71;98176.83;1479581;88;21501;-81
2023/03/11 09:53:13;;;;;;;2.23;1.60;;;;;;;6.67;54.99;98172.16;1486386;88;21450;-81
2023/03/11 09:55:47;;;;;;;3.50;2.17;;;;;;;6.51;55.92;98182.33;1561537;88;21199;-82
2023/03/11 09:58:27;;;;;;;5.87;2.00;;;;;;;6.45;55.60;98190.92;1561688;88;21199;-80
2023/03/11 10:00:54;;;;;;;2.22;1.67;;;;;;;6.39;55.97;98206.89;1499226;88;21325;-83
2023/03/11 10:03:34;;;;;;;2.23;1.40;;;;;;;6.40;56.54;98182.74;1409718;88;21376;-83
2023/03/11 10:06:17;;;;;;;1.40;1.00;;;;;;;6.36;56.28;98199.83;1561483;88;21273;-81
2023/03/11 10:09:12;;;;;;;1.07;0.97;;;;;;;6.32;54.96;98213.32;1555767;88;21362;-81
2023/03/11 10:11:56;;;;;;;3.80;1.30;;;;;;;6.38;55.29;98201.30;1456121;90;21488;-85
2023/03/11 10:14:57;;;;;;;1.37;1.13;;;;;;;6.36;54.10;98203.77;1462585;88;21456;-84
2023/03/11 10:17:47;;;;;;;3.30;2.30;;;;;;;6.46;54.96;98198.61;1478199;88;22352;-83
2023/03/11 10:20:22;;;;;;;3.33;1.87;;;;;;;6.56;55.68;98207.59;1474876;88;21518;-83
2023/03/11 10:23:21;;;;;;;1.73;1.37;;;;;;;6.65;55.79;98210.47;1464636;88;21442;-84
2023/03/11 10:26:09;;;;;;;2.87;1.57;;;;;;;6.96;54.56;98206.91;1475704;88;21531;-82
2023/03/11 10:28:44;;;;;;;3.20;1.60;;;;;;;7.16;54.67;98207.20;1473360;88;21302;-83
2023/03/11 10:31:33;;;;;;;2.30;1.50;;;;;;;7.15;55.28;98192.43;1471169;88;21391;-83
2023/03/11 10:34:20;;;;;;;3.70;0.97;;;;;;;7.08;54.66;98196.29;1471208;88;21457;-82
2023/03/11 10:37:07;;;;;;;1.97;1.30;;;;;;;7.01;54.44;98201.93;1562858;88;21162;-84
2023/03/11 10:39:33;;;;;;;2.47;1.27;;;;;;;7.07;54.08;98206.47;1491136;88;22109;-81
2023/03/11 10:42:03;;;;;;;1.97;1.27;;;;;;;7.26;53.79;98213.54;1401547;88;21288;-84
2023/03/11 10:44:39;;;;;;;5.63;2.07;;;;;;;7.50;53.50;98209.31;1402918;88;21435;-81
2023/03/11 10:47:08;;;;;;;1.30;1.00;;;;;;;7.86;51.43;98201.98;1416874;86;21354;-84
2023/03/11 10:49:34;;;;;;;2.27;1.50;;;;;;;8.28;52.51;98205.17;1548004;88;21542;-81
2023/03/11 10:52:04;;;;;;;2.90;1.40;;;;;;;8.41;50.53;98197.95;1539372;88;21274;-83
2023/03/11 10:54:36;;;;;;;4.78;3.08;;;;;;;8.61;51.70;98193.38;1396636;88;22251;-83
2023/03/11 10:57:22;;;;;;;4.13;2.70;;;;;;;8.62;50.44;98204.22;1556035;88;21369;-82
2023/03/11 10:59:53;;;;;;;2.87;2.07;;;;;;;8.56;51.55;98205.28;1566647;88;21296;-85
2023/03/11 11:02:49;;;;;;;2.90;1.67;;;;;;;8.45;52.09;98207.09;1531550;88;21954;-82
2023/03/11 11:05:21;;;;;;;4.47;1.70;;;;;;;8.20;51.05;98209.74;1501589;86;21442;-85
2023/03/11 11:07:49;;;;;;;4.30;1.57;;;;;;;8.05;51.86;98202.70;1479547;88;21464;-83
2023/03/11 11:10:27;;;;;;;7.17;1.40;;;;;;;7.99;52.75;98211.34;1475366;88;21451;-81
2023/03/11 11:13:02;;;;;;;2.13;1.30;;;;;;;8.06;53.15;98214.89;1479885;88;22368;-84
2023/03/11 11:15:41;;;;;;;0.93;0.90;;;;;;;8.08;52.85;98209.41;1561688;88;21295;-83
2023/03/11 11:18:48;;;;;;;0.73;0.73;;;;;;;8.03;48.61;98209.98;1561670;88;21259;-83
2023/03/11 11:21:44;;;;;;;1.47;0.97;;;;;;;8.04;49.36;98215.56;1561827;88;21204;-83
2023/03/11 11:24:24;;;;;;;3.47;1.00;;;;;;;7.99;49.24;98211.34;1561286;88;21310;-82
2023/03/11 11:27:28;;;;;;;2.13;1.00;;;;;;;7.96;49.50;98201.18;1561665;88;21207;-82
2023/03/11 11:30:16;;;;;;;0.83;0.70;;;;;;;7.94;49.17;98193.14;1357283;92;22305;-84
2023/03/11 11:32:42;;;;;;;1.43;1.00;;;;;;;7.93;47.95;98218.67;1383509;89;21369;-83
2023/03/11 11:35:15;;;;;;;1.03;0.93;;;;;;;7.94;48.35;98208.47;1401259;88;21280;-84
2023/03/11 11:37:45;;;;;;;2.70;1.20;;;;;;;7.96;48.48;98207.77;1402878;88;21362;-85
2023/03/11 11:40:32;;;;;;;2.87;1.17;;;;;;;7.99;48.18;98212.66;1397234;88;21436;-83
2023/03/11 11:43:16;;;;;;;1.67;0.90;;;;;;;8.00;48.00;98211.68;1555831;88;21444;-84
2023/03/11 11:45:59;;;;;;;1.57;0.87;;;;;;;7.99;48.10;98224.52;1526423;88;22195;-84
2023/03/11 11:49:09;;;;;;;3.33;0.70;;;;;;;7.95;48.45;98239.58;1473083;88;21760;-84
2023/03/11 11:51:42;;;;;;;4.83;1.20;;;;;;;7.86;48.49;98241.49;1478260;88;21384;-82
2023/03/11 11:54:41;;;;;;;0.90;0.60;;;;;;;7.75;48.20;98244.59;1478812;88;21427;-86
2023/03/11 11:57:18;;;;;;;0.97;0.80;;;;;;;7.63;48.66;98252.94;1479778;88;21670;-85